Time;durP1;ratioP1;P1;durP2;ratioP2;P2;SDS_P1;SDS_P2;PMS_P1;PMS_P2;Temp;Humidity;BMP_temperature;BMP_pressure;BME280_temperature;BME280_humidity;BME280_pressure;Samples;Min_cycle;Max_cycle;Signal;HPM_P1;HPM_P2
2023/05/19 00:00:59;;;;;;;6.93;2.03;;;;;;;9.01;67.03;102018.88;5086977;28;20079;-73
2023/05/19 00:03:26;;;;;;;12.75;2.83;;;;;;;8.97;67.70;102010.22;5087063;28;20079;-73
2023/05/19 00:05:55;;;;;;;9.10;1.80;;;;;;;8.93;66.93;102016.47;5088132;28;20066;-75
2023/05/19 00:08:23;;;;;;;13.02;2.70;;;;;;;8.92;67.02;102022.63;5087861;28;20048;-75
2023/05/19 00:10:51;;;;;;;12.77;2.58;;;;;;;8.90;67.51;102028.81;5070776;28;20059;-73
2023/05/19 00:13:18;;;;;;;5.85;2.50;;;;;;;8.86;67.63;102026.28;5088010;28;20413;-74
2023/05/19 00:15:45;;;;;;;9.90;2.67;;;;;;;8.84;67.39;102035.97;5068500;28;20131;-73
2023/05/19 00:18:13;;;;;;;12.80;2.72;;;;;;;8.82;67.42;102029.91;5090398;28;20619;-74
2023/05/19 00:20:40;;;;;;;6.28;2.03;;;;;;;8.79;67.76;102016.88;5085211;28;20051;-74
2023/05/19 00:23:07;;;;;;;10.27;2.38;;;;;;;8.76;67.79;102022.22;5064725;28;20114;-74
2023/05/19 00:25:34;;;;;;;12.57;2.40;;;;;;;8.71;67.92;102028.50;5070251;28;20066;-74
2023/05/19 00:28:02;;;;;;;10.43;2.28;;;;;;;8.66;68.22;102014.66;5087361;28;20056;-74
2023/05/19 00:30:30;;;;;;;7.22;2.15;;;;;;;8.62;68.22;102019.97;5071959;28;20522;-74
2023/05/19 00:32:57;;;;;;;4.10;1.90;;;;;;;8.61;67.89;102023.50;5089788;28;20423;-74
2023/05/19 00:35:24;;;;;;;11.10;2.60;;;;;;;8.60;67.88;102020.91;5083460;28;20056;-74
2023/05/19 00:37:52;;;;;;;8.68;2.47;;;;;;;8.58;68.24;102022.75;5087833;28;20151;-74
2023/05/19 00:40:20;;;;;;;7.95;2.75;;;;;;;8.54;68.15;102027.22;5086264;28;20068;-75
2023/05/19 00:42:47;;;;;;;13.15;2.58;;;;;;;8.50;68.02;102012.44;5070145;28;20044;-74
2023/05/19 00:45:14;;;;;;;9.13;2.30;;;;;;;8.48;68.00;102018.66;5087187;28;20043;-74
2023/05/19 00:47:41;;;;;;;6.43;2.15;;;;;;;8.47;67.88;102020.44;5089512;28;20044;-75
2023/05/19 00:50:09;;;;;;;11.18;2.67;;;;;;;8.42;68.28;102027.56;5082256;28;20064;-74
2023/05/19 00:52:36;;;;;;;6.00;2.65;;;;;;;8.39;68.76;102014.53;5086520;28;20055;-73
2023/05/19 00:55:04;;;;;;;9.13;2.42;;;;;;;8.38;68.79;102014.56;5070651;28;20048;-74
2023/05/19 00:57:31;;;;;;;14.70;2.78;;;;;;;8.35;68.42;102013.72;5068880;28;20044;-76
2023/05/19 00:59:59;;;;;;;6.00;2.05;;;;;;;8.33;68.18;102022.50;5082977;28;20052;-74
2023/05/19 01:02:28;;;;;;;6.45;1.90;;;;;;;8.30;68.63;102020.00;5086204;28;20543;-74
2023/05/19 01:04:56;;;;;;;7.53;2.35;;;;;;;8.27;68.27;102023.53;5070024;28;20046;-74
2023/05/19 01:11:41;;;;;;;7.93;2.10;;;;;;;8.22;68.30;102014.09;5084621;28;20046;-74
2023/05/19 01:14:09;;;;;;;6.18;1.65;;;;;;;8.19;69.13;102020.25;5088070;28;20039;-74
2023/05/19 01:16:41;;;;;;;8.05;2.20;;;;;;;8.17;69.16;102014.22;5083546;28;20048;-75
2023/05/19 01:19:39;;;;;;;7.97;2.63;;;;;;;8.12;68.75;102011.72;5067069;28;20055;-75
2023/05/19 01:22:13;;;;;;;8.60;2.55;;;;;;;8.10;69.16;102010.00;5081712;28;20032;-74
2023/05/19 01:24:46;;;;;;;8.50;2.00;;;;;;;8.05;69.52;102012.75;5087634;28;20044;-75
2023/05/19 01:27:22;;;;;;;9.75;2.50;;;;;;;8.02;69.87;102007.63;5082416;28;20056;-74
2023/05/19 01:29:49;;;;;;;6.22;2.25;;;;;;;8.02;69.70;102009.38;5086777;28;20052;-74
2023/05/19 01:32:18;;;;;;;7.13;2.10;;;;;;;8.03;69.47;102019.81;5068549;28;20055;-75
2023/05/19 01:34:48;;;;;;;6.10;2.17;;;;;;;8.05;69.20;102017.16;5029060;28;1592973;-74
2023/05/19 01:37:16;;;;;;;14.95;2.92;;;;;;;8.05;69.83;102011.91;5082705;28;20470;-74
2023/05/19 01:39:44;;;;;;;4.88;1.77;;;;;;;8.06;69.71;102017.13;5086511;28;20139;-75
2023/05/19 01:42:12;;;;;;;5.90;1.90;;;;;;;8.05;69.37;102020.63;5083533;28;20427;-74
2023/05/19 01:44:39;;;;;;;8.48;2.08;;;;;;;8.03;69.29;102016.34;5086543;28;20042;-75
2023/05/19 01:47:33;;;;;;;5.93;2.03;;;;;;;7.99;69.61;102015.56;5084170;28;20055;-74
2023/05/19 01:50:00;;;;;;;11.20;2.65;;;;;;;7.97;70.20;102012.13;5065066;28;20040;-74
2023/05/19 01:52:27;;;;;;;9.35;2.20;;;;;;;7.94;70.03;102016.56;5085698;28;20543;-74
2023/05/19 01:54:54;;;;;;;14.20;2.63;;;;;;;7.93;70.15;102014.88;5088452;28;20063;-75
2023/05/19 01:58:04;;;;;;;7.68;2.00;;;;;;;7.91;70.49;102019.25;5072532;28;20048;-74
2023/05/19 02:00:58;;;;;;;4.10;2.03;;;;;;;7.89;70.20;102015.84;5081196;28;20054;-74
2023/05/19 02:03:31;;;;;;;7.28;2.10;;;;;;;7.86;69.79;102016.75;5071722;28;20101;-74
2023/05/19 02:06:30;;;;;;;9.05;2.22;;;;;;;7.84;69.92;102014.19;5088745;28;20058;-74
2023/05/19 02:09:03;;;;;;;8.23;2.28;;;;;;;7.82;70.88;102017.75;5078562;28;20493;-74
2023/05/19 02:11:39;;;;;;;10.93;2.58;;;;;;;7.79;70.69;102023.03;5084944;28;20491;-75
2023/05/19 02:14:15;;;;;;;6.97;2.83;;;;;;;7.76;70.77;102016.13;5096966;28;20048;-74
2023/05/19 02:17:07;;;;;;;;;;;;;;;7.75;71.47;102022.28;5087568;28;20058;-74
2023/05/19 02:20:23;;;;;;;10.82;2.92;;;;;;;7.72;71.55;102018.88;5085474;28;20412;-73
2023/05/19 02:22:51;;;;;;;11.35;2.35;;;;;;;7.69;71.40;102016.31;5088266;28;20089;-74
2023/05/19 02:25:18;;;;;;;5.57;2.10;;;;;;;7.69;71.21;102016.31;5091241;28;20056;-76
2023/05/19 02:27:45;;;;;;;6.00;2.47;;;;;;;7.66;71.44;102021.66;5083110;28;20131;-74
2023/05/19 02:30:13;;;;;;;9.45;2.70;;;;;;;7.64;71.58;102019.06;5090151;28;20070;-74
2023/05/19 02:32:40;;;;;;;4.28;2.17;;;;;;;7.63;71.89;102021.72;5090151;28;20071;-75
2023/05/19 02:35:07;;;;;;;8.15;2.38;;;;;;;7.61;72.23;102021.78;5088040;28;20139;-74
2023/05/19 02:37:35;;;;;;;6.03;1.77;;;;;;;7.59;71.80;102013.94;5088929;28;20080;-75
2023/05/19 02:40:03;;;;;;;10.82;2.65;;;;;;;7.59;72.10;102016.53;5073359;28;20057;-74
2023/05/19 02:42:30;;;;;;;6.28;2.30;;;;;;;7.60;72.03;102007.78;5087779;28;20396;-74
2023/05/19 02:44:59;;;;;;;10.80;2.45;;;;;;;7.60;72.41;102007.78;5069711;28;20556;-75
2023/05/19 02:47:26;;;;;;;12.68;2.70;;;;;;;7.63;72.38;102011.25;5090421;28;20058;-74
2023/05/19 02:49:53;;;;;;;9.10;2.15;;;;;;;7.63;72.64;102006.84;5088817;28;20050;-76
2023/05/19 02:52:21;;;;;;;7.72;2.50;;;;;;;7.65;72.27;102010.28;5085882;28;20074;-75
2023/05/19 02:54:48;;;;;;;9.25;2.80;;;;;;;7.67;72.45;102003.25;5088892;28;20059;-73
2023/05/19 02:57:15;;;;;;;10.15;2.45;;;;;;;7.70;72.15;102011.06;5088694;28;20534;-74
2023/05/19 02:59:43;;;;;;;13.13;2.53;;;;;;;7.75;72.02;102010.94;5090707;28;20051;-74
2023/05/19 03:02:10;;;;;;;7.10;2.13;;;;;;;7.77;72.18;102002.13;5084662;28;20048;-74
2023/05/19 03:04:40;;;;;;;5.13;2.10;;;;;;;7.80;72.53;102009.06;5089004;28;20056;-74
2023/05/19 03:07:09;;;;;;;8.68;2.60;;;;;;;7.84;72.20;102005.47;5087556;28;20060;-74
2023/05/19 03:09:36;;;;;;;9.00;2.17;;;;;;;7.87;71.77;102002.75;5086945;28;20064;-75
2023/05/19 03:12:06;;;;;;;6.70;1.90;;;;;;;7.89;71.93;102006.22;5087253;28;20145;-73
2023/05/19 03:14:36;;;;;;;7.43;2.53;;;;;;;7.89;71.81;101997.47;5088454;28;20070;-75
2023/05/19 03:17:07;;;;;;;9.15;2.10;;;;;;;7.87;71.90;101997.50;5086406;28;20143;-75
2023/05/19 03:19:34;;;;;;;5.65;1.92;;;;;;;7.86;71.99;101996.66;5087999;28;20143;-74
2023/05/19 03:22:02;;;;;;;12.80;2.38;;;;;;;7.86;71.77;101999.25;5087503;28;20128;-74
2023/05/19 03:24:29;;;;;;;11.70;2.95;;;;;;;7.86;72.11;101999.25;5089421;28;20040;-74
2023/05/19 03:26:56;;;;;;;5.28;2.05;;;;;;;7.86;72.10;102004.50;5085770;28;20066;-74
2023/05/19 03:29:24;;;;;;;5.78;2.28;;;;;;;7.83;72.34;102003.72;5090777;28;20432;-74
2023/05/19 03:31:51;;;;;;;7.15;2.33;;;;;;;7.81;72.40;102008.16;5072630;28;20028;-74
2023/05/19 03:34:18;;;;;;;6.13;2.58;;;;;;;7.80;73.00;102002.06;5090553;28;20579;-74
2023/05/19 03:36:47;;;;;;;10.35;2.50;;;;;;;7.79;72.58;101999.44;5084667;28;20139;-74
2023/05/19 03:39:15;;;;;;;10.73;2.42;;;;;;;7.81;71.96;102002.91;5096343;28;20062;-73
2023/05/19 03:41:42;;;;;;;11.55;2.65;;;;;;;7.84;72.11;102000.22;5094920;28;20044;-74
2023/05/19 03:44:10;;;;;;;9.70;2.50;;;;;;;7.87;72.59;101998.34;5093440;28;20098;-73
2023/05/19 03:46:37;;;;;;;10.95;2.30;;;;;;;7.89;72.35;102000.97;5092585;28;20115;-74
2023/05/19 03:49:04;;;;;;;9.93;2.58;;;;;;;7.92;72.80;102002.63;5088145;28;20048;-73
2023/05/19 03:51:33;;;;;;;6.65;2.90;;;;;;;7.95;72.57;102000.78;5084589;28;20500;-73
2023/05/19 03:54:01;;;;;;;8.77;2.83;;;;;;;8.02;72.55;101998.88;5086010;28;20051;-73
2023/05/19 03:56:28;;;;;;;8.13;2.25;;;;;;;8.06;72.30;102006.63;5084332;28;20063;-73
2023/05/19 03:58:55;;;;;;;8.05;2.50;;;;;;;8.12;72.35;102002.97;5065124;28;20041;-73
2023/05/19 04:01:23;;;;;;;10.57;2.88;;;;;;;8.18;71.95;102005.44;5085496;28;20284;-74
2023/05/19 04:03:50;;;;;;;9.55;2.90;;;;;;;8.24;72.11;102007.91;5071109;28;20054;-74
2023/05/19 04:06:17;;;;;;;6.35;2.25;;;;;;;8.29;71.97;102003.38;5047690;28;20045;-75
2023/05/19 04:08:45;;;;;;;9.10;3.05;;;;;;;8.34;72.14;101998.88;5069600;28;20657;-73
2023/05/19 04:11:12;;;;;;;7.28;2.40;;;;;;;8.40;72.08;101999.63;5086944;28;20054;-76
2023/05/19 04:13:39;;;;;;;4.80;2.28;;;;;;;8.45;72.14;102003.00;5083831;28;20411;-73
2023/05/19 04:16:07;;;;;;;8.32;2.50;;;;;;;8.51;72.05;102006.31;5085057;28;20054;-73
2023/05/19 04:18:34;;;;;;;7.70;2.40;;;;;;;8.58;71.30;102002.59;5087148;28;20143;-74
2023/05/19 04:21:01;;;;;;;5.55;2.10;;;;;;;8.62;71.42;101998.13;5085384;28;20171;-73
2023/05/19 04:23:28;;;;;;;6.68;2.55;;;;;;;8.68;71.44;102002.31;5069825;28;20044;-73
2023/05/19 04:25:57;;;;;;;10.82;2.50;;;;;;;8.75;71.17;102006.50;5063392;28;20501;-74
2023/05/19 04:28:25;;;;;;;6.70;2.10;;;;;;;8.78;71.32;102003.78;5086757;28;20538;-74
2023/05/19 04:30:52;;;;;;;7.72;2.80;;;;;;;8.87;71.20;102006.13;5088611;28;20080;-74
2023/05/19 04:33:20;;;;;;;11.48;2.58;;;;;;;8.95;70.87;102012.00;5088172;28;20056;-75
2023/05/19 04:35:49;;;;;;;9.68;2.90;;;;;;;9.04;70.04;102018.75;5087138;28;20074;-74
2023/05/19 04:38:17;;;;;;;7.25;2.65;;;;;;;9.11;70.30;102020.31;5089045;28;20052;-75
2023/05/19 04:40:45;;;;;;;7.70;2.22;;;;;;;9.19;70.37;102018.31;5089536;28;20535;-76
2023/05/19 04:43:12;;;;;;;8.45;2.67;;;;;;;9.27;70.52;102015.44;5086514;28;20052;-73
2023/05/19 04:45:41;;;;;;;6.90;2.33;;;;;;;9.32;70.55;102014.41;5087186;28;20074;-75
2023/05/19 04:48:08;;;;;;;6.95;2.53;;;;;;;9.40;69.77;102022.00;5074074;28;20082;-74
2023/05/19 04:50:37;;;;;;;7.30;2.75;;;;;;;9.47;70.01;102017.44;5090641;28;20052;-76
2023/05/19 04:53:04;;;;;;;8.38;2.55;;;;;;;9.53;69.55;102018.09;5086614;28;20104;-75
2023/05/19 04:55:31;;;;;;;3.35;2.03;;;;;;;9.62;69.15;102025.69;5085717;28;20120;-76
2023/05/19 04:57:59;;;;;;;9.48;2.63;;;;;;;9.72;69.26;102022.75;5068502;28;20151;-76
2023/05/19 05:00:27;;;;;;;4.28;2.05;;;;;;;9.77;69.50;102024.34;5066255;28;20471;-75
2023/05/19 05:02:56;;;;;;;5.90;2.35;;;;;;;9.85;68.90;102018.78;5051818;28;20104;-74
2023/05/19 05:05:23;;;;;;;7.70;2.42;;;;;;;9.95;69.04;102014.97;5087702;28;20036;-73
2023/05/19 05:07:52;;;;;;;9.93;2.92;;;;;;;10.04;68.50;102011.13;5061901;28;20040;-76
2023/05/19 05:10:20;;;;;;;9.45;2.28;;;;;;;10.13;68.69;102013.44;5103896;28;20109;-75
2023/05/19 05:12:48;;;;;;;5.43;2.08;;;;;;;10.23;68.24;102019.28;5067598;28;20048;-75
2023/05/19 05:15:16;;;;;;;6.22;2.17;;;;;;;10.30;67.65;102015.53;5103733;28;20048;-75
2023/05/19 05:17:43;;;;;;;12.00;2.67;;;;;;;10.38;67.71;102016.13;5083693;28;20072;-74
2023/05/19 05:20:11;;;;;;;4.35;2.20;;;;;;;10.45;66.94;102025.53;5086233;28;20047;-74
2023/05/19 05:22:39;;;;;;;5.60;2.47;;;;;;;10.52;67.19;102021.72;5086348;28;20056;-74
2023/05/19 05:25:07;;;;;;;8.30;2.72;;;;;;;10.53;66.87;102019.97;5087904;28;20073;-74
2023/05/19 05:27:35;;;;;;;6.97;3.08;;;;;;;10.57;66.58;102021.56;5069957;28;20135;-74
2023/05/19 05:30:03;;;;;;;7.07;3.25;;;;;;;10.59;66.47;102019.75;5082148;28;20144;-75
2023/05/19 05:32:31;;;;;;;5.70;2.53;;;;;;;10.61;66.36;102023.19;5088617;28;20150;-74
2023/05/19 05:34:58;;;;;;;8.38;2.47;;;;;;;10.67;66.19;102024.72;5086020;28;20082;-75
2023/05/19 05:37:25;;;;;;;6.53;2.33;;;;;;;10.69;66.24;102022.91;5086859;28;20066;-74
2023/05/19 05:39:53;;;;;;;4.32;2.20;;;;;;;10.74;65.88;102024.44;5088041;28;20044;-74
2023/05/19 05:42:20;;;;;;;7.82;2.72;;;;;;;10.82;65.78;102014.47;5087068;28;20779;-75
2023/05/19 05:44:47;;;;;;;6.05;2.47;;;;;;;10.92;65.63;102024.66;5085326;28;20436;-74
2023/05/19 05:47:14;;;;;;;5.97;2.60;;;;;;;11.03;65.50;102014.56;5087951;28;20040;-74
2023/05/19 05:49:42;;;;;;;6.03;2.78;;;;;;;11.14;65.27;102015.03;5086770;28;20062;-75
2023/05/19 05:52:11;;;;;;;6.18;2.50;;;;;;;11.29;64.89;102018.81;5084952;28;20056;-75
2023/05/19 05:54:39;;;;;;;5.90;2.60;;;;;;;11.47;64.63;102019.88;5085086;28;20610;-75
2023/05/19 05:57:06;;;;;;;6.40;2.63;;;;;;;11.63;64.42;102019.19;5087277;28;20054;-74
2023/05/19 05:59:33;;;;;;;8.95;2.58;;;;;;;11.76;63.89;102014.28;5083044;28;20075;-75
2023/05/19 06:02:01;;;;;;;7.97;2.83;;;;;;;11.88;63.62;102026.09;5083546;28;20062;-74
2023/05/19 06:04:28;;;;;;;5.95;2.55;;;;;;;11.95;63.30;102024.94;5086706;28;20036;-75
2023/05/19 06:06:59;;;;;;;5.75;2.38;;;;;;;12.03;63.18;102016.69;5070676;28;20044;-75
2023/05/19 06:09:28;;;;;;;5.00;2.35;;;;;;;12.08;62.78;102015.56;5086619;28;20048;-75
2023/05/19 06:11:57;;;;;;;7.93;2.58;;;;;;;12.16;62.43;102013.47;5087097;28;20072;-75
2023/05/19 06:14:24;;;;;;;8.70;2.35;;;;;;;12.36;62.26;102020.50;5084233;28;20056;-74
2023/05/19 06:16:51;;;;;;;8.70;2.10;;;;;;;12.62;61.98;102023.78;5087796;28;20052;-75
2023/05/19 06:19:19;;;;;;;4.85;2.22;;;;;;;12.81;61.29;102019.34;5096376;28;20048;-74
2023/05/19 06:21:47;;;;;;;7.47;2.92;;;;;;;12.99;60.64;102022.94;5088950;28;20738;-75
2023/05/19 06:24:14;;;;;;;8.75;2.55;;;;;;;13.11;60.25;102018.88;5071116;28;20052;-75
2023/05/19 06:26:41;;;;;;;8.98;2.50;;;;;;;13.21;60.43;102011.34;5094199;28;20051;-75
2023/05/19 06:29:09;;;;;;;7.85;2.65;;;;;;;13.29;59.89;102014.53;5087833;28;20131;-75
2023/05/19 06:31:36;;;;;;;6.53;2.80;;;;;;;13.38;59.29;102014.06;5082528;28;20056;-75
2023/05/19 06:34:04;;;;;;;5.38;2.75;;;;;;;13.42;58.94;102020.94;5087042;28;20209;-76
2023/05/19 06:36:31;;;;;;;3.78;1.92;;;;;;;13.45;58.93;102023.41;5090458;28;20048;-72
2023/05/19 06:38:59;;;;;;;5.82;2.40;;;;;;;13.49;58.89;102017.03;5067307;28;20093;-74
2023/05/19 06:41:29;;;;;;;10.00;2.63;;;;;;;13.55;58.65;102011.44;5072679;28;20134;-76
2023/05/19 06:43:56;;;;;;;9.00;2.50;;;;;;;13.62;58.36;102020.81;5089346;28;20043;-75
2023/05/19 06:46:23;;;;;;;8.80;3.10;;;;;;;13.63;58.53;102019.84;5089834;28;20518;-75
2023/05/19 06:48:50;;;;;;;7.05;3.65;;;;;;;13.66;58.33;102016.22;5089564;28;20048;-75
2023/05/19 06:51:20;;;;;;;7.82;3.15;;;;;;;13.68;58.42;102016.97;5087995;28;20044;-75
2023/05/19 06:53:48;;;;;;;11.88;2.88;;;;;;;13.72;58.66;102021.19;5054460;28;20284;-74
2023/05/19 06:56:15;;;;;;;5.15;1.98;;;;;;;13.78;58.51;102020.03;5088564;28;20048;-75
2023/05/19 06:58:42;;;;;;;5.35;2.65;;;;;;;13.86;58.22;102018.72;5087713;28;20076;-74
2023/05/19 07:01:10;;;;;;;6.97;2.63;;;;;;;13.94;58.17;102018.34;5089361;28;20073;-74
2023/05/19 07:03:37;;;;;;;11.00;2.60;;;;;;;14.03;58.11;102020.50;5089948;28;20468;-74
2023/05/19 07:06:05;;;;;;;10.70;2.22;;;;;;;14.13;57.82;102018.25;5083710;28;20051;-75
2023/05/19 07:08:35;;;;;;;7.88;3.08;;;;;;;14.18;57.98;102016.19;5089342;28;20396;-74
2023/05/19 07:11:03;;;;;;;6.25;2.53;;;;;;;14.17;57.74;102018.00;5087196;28;20528;-75
2023/05/19 07:13:31;;;;;;;5.38;2.42;;;;;;;14.23;58.00;102015.97;5088757;28;20409;-74
2023/05/19 07:15:58;;;;;;;4.65;2.67;;;;;;;14.33;57.87;102022.53;5064409;28;20709;-74
2023/05/19 07:18:28;;;;;;;10.07;3.50;;;;;;;14.45;57.80;102016.56;5089782;28;20078;-74
2023/05/19 07:20:57;;;;;;;9.85;2.80;;;;;;;14.57;57.59;102023.88;5087779;28;20064;-75
2023/05/19 07:23:24;;;;;;;6.07;2.90;;;;;;;14.78;57.36;102015.72;5085611;28;21359;-75
2023/05/19 07:25:55;;;;;;;7.22;2.22;;;;;;;14.98;56.80;102017.28;5091265;28;20044;-74
2023/05/19 07:28:22;;;;;;;5.10;2.40;;;;;;;15.16;56.50;102013.59;5091472;28;20048;-74
2023/05/19 07:30:50;;;;;;;4.95;2.38;;;;;;;15.32;55.78;102019.75;5093148;28;20131;-74
2023/05/19 07:33:17;;;;;;;7.05;2.83;;;;;;;15.45;55.30;102020.78;5089712;28;20071;-75
2023/05/19 07:35:45;;;;;;;4.88;2.33;;;;;;;15.67;55.00;102023.09;5090168;28;20077;-75
2023/05/19 07:38:12;;;;;;;8.60;3.05;;;;;;;15.95;54.19;102016.16;5091464;28;20239;-76
2023/05/19 07:40:39;;;;;;;5.53;2.00;;;;;;;16.16;53.47;102012.19;5090990;28;20094;-74
2023/05/19 07:43:07;;;;;;;3.75;2.50;;;;;;;16.39;52.97;102013.47;5097377;28;20065;-74
2023/05/19 07:45:34;;;;;;;7.30;2.20;;;;;;;16.64;52.73;102014.59;5086101;28;20132;-74
2023/05/19 07:48:01;;;;;;;4.32;2.10;;;;;;;16.82;52.38;102005.50;5090756;28;20044;-74
2023/05/19 07:50:29;;;;;;;5.07;2.60;;;;;;;16.95;51.77;102009.09;5070471;28;20207;-74
2023/05/19 07:52:56;;;;;;;6.28;2.65;;;;;;;17.24;51.39;101997.53;5086011;28;20056;-75
2023/05/19 07:55:23;;;;;;;5.63;2.05;;;;;;;17.50;50.62;102007.31;5086913;28;20052;-74
2023/05/19 07:57:50;;;;;;;5.80;2.42;;;;;;;17.65;50.07;102008.97;5086023;28;20384;-74
2023/05/19 08:00:18;;;;;;;2.90;2.10;;;;;;;17.70;49.87;102009.53;5086732;28;20052;-74
2023/05/19 08:02:45;;;;;;;7.22;2.05;;;;;;;17.85;49.55;102014.81;5088382;28;20059;-74
2023/05/19 08:05:13;;;;;;;5.85;2.03;;;;;;;17.92;48.85;102005.41;5086984;28;20159;-74
2023/05/19 08:07:41;;;;;;;5.95;2.50;;;;;;;18.01;48.33;102004.78;5085635;28;20059;-73
2023/05/19 08:10:08;;;;;;;8.23;2.40;;;;;;;18.12;48.38;102009.41;5085586;28;20131;-74
2023/05/19 08:12:35;;;;;;;7.40;2.30;;;;;;;18.18;47.87;102009.81;5085093;28;20147;-73
2023/05/19 08:15:03;;;;;;;4.82;2.47;;;;;;;18.20;47.89;102004.41;5087935;28;20087;-73
2023/05/19 08:17:30;;;;;;;3.80;2.30;;;;;;;18.23;47.39;101999.69;5083342;28;20049;-73
2023/05/19 08:19:59;;;;;;;4.68;2.40;;;;;;;18.23;47.60;102007.69;5087025;28;20420;-75
2023/05/19 08:22:26;;;;;;;4.80;2.47;;;;;;;18.27;47.50;102011.00;5094685;28;20107;-74
2023/05/19 08:24:54;;;;;;;4.57;2.03;;;;;;;18.38;47.28;102012.94;5078664;28;20044;-74
2023/05/19 08:27:21;;;;;;;5.60;2.63;;;;;;;18.46;46.45;102019.44;5096777;28;20054;-74
2023/05/19 08:29:48;;;;;;;5.90;2.53;;;;;;;18.67;45.89;102018.88;5084274;28;20048;-73
2023/05/19 08:32:16;;;;;;;4.93;1.98;;;;;;;18.90;45.79;102006.59;5087919;28;20462;-73
2023/05/19 08:34:43;;;;;;;5.35;2.33;;;;;;;19.17;45.35;102011.75;5089976;28;20066;-75
2023/05/19 08:37:11;;;;;;;4.65;2.10;;;;;;;19.44;44.93;102008.84;5080138;28;20040;-73
2023/05/19 08:39:38;;;;;;;6.13;2.40;;;;;;;19.51;44.22;102006.59;5086227;28;20062;-74
2023/05/19 08:42:06;;;;;;;9.20;2.08;;;;;;;19.50;43.64;102005.75;5089420;28;20115;-74
2023/05/19 08:44:35;;;;;;;5.65;2.67;;;;;;;19.63;43.10;102008.34;5086656;28;20089;-74
2023/05/19 08:47:11;;;;;;;6.88;2.20;;;;;;;19.79;42.08;102006.22;5086220;28;20044;-73
2023/05/19 08:49:45;;;;;;;6.43;1.83;;;;;;;19.94;41.87;102007.72;5073301;28;20061;-73
2023/05/19 08:52:16;;;;;;;3.90;2.20;;;;;;;20.07;41.21;101999.63;5087444;28;20055;-73
2023/05/19 08:55:04;;;;;;;3.80;1.88;;;;;;;20.26;40.30;102009.72;5086747;28;20139;-74
2023/05/19 08:57:32;;;;;;;4.70;1.80;;;;;;;20.36;39.40;101999.19;5081803;28;20045;-74
2023/05/19 09:00:01;;;;;;;4.22;1.50;;;;;;;20.45;39.35;101998.47;5069684;28;20056;-74
2023/05/19 09:02:29;;;;;;;4.00;1.90;;;;;;;20.69;38.19;102001.03;5052261;28;20067;-74
2023/05/19 09:04:57;;;;;;;5.05;1.60;;;;;;;20.65;37.15;102000.44;5084519;28;20071;-73
2023/05/19 09:07:25;;;;;;;6.00;1.60;;;;;;;20.31;37.27;101993.31;5069890;28;20071;-73
2023/05/19 09:09:52;;;;;;;2.70;1.40;;;;;;;20.34;38.14;101985.06;5084982;28;20093;-73
2023/05/19 09:12:19;;;;;;;3.80;1.48;;;;;;;20.48;37.80;101990.22;5082908;28;20052;-73
2023/05/19 09:14:47;;;;;;;4.68;2.05;;;;;;;20.68;38.26;101978.78;5060975;28;20058;-73
2023/05/19 09:17:14;;;;;;;3.50;1.20;;;;;;;20.86;38.03;101975.59;5087348;28;20558;-73
2023/05/19 09:19:43;;;;;;;4.32;1.40;;;;;;;20.71;37.79;101973.19;5093420;28;20048;-74
2023/05/19 09:22:10;;;;;;;3.20;1.35;;;;;;;20.59;37.89;101973.31;5085455;28;20062;-74
2023/05/19 09:24:39;;;;;;;3.15;1.40;;;;;;;20.71;37.40;101975.88;5086979;28;20051;-74
2023/05/19 09:27:06;;;;;;;2.50;1.35;;;;;;;20.92;37.09;101975.94;5087746;28;20123;-73
2023/05/19 09:29:34;;;;;;;9.90;1.70;;;;;;;20.74;36.35;101964.91;5089586;28;20052;-73
2023/05/19 09:32:03;;;;;;;5.93;1.42;;;;;;;20.90;36.53;101959.16;5092928;28;20214;-74
2023/05/19 09:34:31;;;;;;;4.05;1.20;;;;;;;21.02;36.25;101954.63;5071227;28;20124;-74
2023/05/19 09:36:58;;;;;;;4.35;1.45;;;;;;;21.24;36.01;101959.91;5083072;28;20150;-75
2023/05/19 09:39:27;;;;;;;5.47;1.40;;;;;;;21.51;36.65;101958.63;5088673;28;20554;-74
2023/05/19 09:41:57;;;;;;;8.43;1.52;;;;;;;21.65;36.72;101946.72;5086855;28;20417;-73
2023/05/19 09:44:29;;;;;;;3.95;1.30;;;;;;;21.76;36.62;101956.56;5089942;28;20046;-74
2023/05/19 09:46:57;;;;;;;3.08;1.10;;;;;;;21.64;35.79;101953.91;5073825;28;20387;-75
2023/05/19 09:49:30;;;;;;;3.08;1.20;;;;;;;21.87;36.15;101959.16;5089945;28;20052;-75
2023/05/19 09:51:59;;;;;;;3.33;1.05;;;;;;;22.10;35.45;101954.47;5090281;28;20071;-74
2023/05/19 09:54:27;;;;;;;4.07;1.48;;;;;;;22.26;34.52;101956.72;5087615;28;20060;-75
2023/05/19 09:57:02;;;;;;;6.82;1.25;;;;;;;22.20;35.04;101953.59;5090768;28;20067;-75
2023/05/19 09:59:30;;;;;;;3.22;1.38;;;;;;;22.18;35.07;101957.38;5085395;28;20139;-75
2023/05/19 10:02:00;;;;;;;3.60;1.08;;;;;;;22.02;34.32;101957.84;5086794;28;20059;-74
2023/05/19 10:04:28;;;;;;;2.13;1.02;;;;;;;22.06;34.02;101953.03;5093376;28;20075;-74
2023/05/19 10:07:00;;;;;;;4.13;1.38;;;;;;;22.36;34.01;101946.88;5085622;28;20093;-75
2023/05/19 10:09:28;;;;;;;3.40;1.17;;;;;;;22.68;34.02;101942.19;5090254;28;20131;-73
2023/05/19 10:11:57;;;;;;;3.63;1.13;;;;;;;22.82;33.63;101934.72;5072096;28;20097;-74
2023/05/19 10:14:26;;;;;;;2.42;1.17;;;;;;;22.74;33.51;101930.06;5084175;28;20067;-74
2023/05/19 10:16:54;;;;;;;2.47;1.05;;;;;;;22.71;33.91;101917.75;5089220;28;20400;-74
2023/05/19 10:19:24;;;;;;;5.00;1.20;;;;;;;22.83;33.29;101921.19;5091973;28;20127;-74
2023/05/19 10:21:52;;;;;;;1.73;1.10;;;;;;;22.96;33.48;101928.97;5088402;28;20058;-74
2023/05/19 10:24:20;;;;;;;8.68;1.40;;;;;;;22.93;33.24;101918.53;5088421;28;20055;-74
2023/05/19 10:26:55;;;;;;;3.72;1.30;;;;;;;22.98;33.34;101943.97;5088451;28;20127;-73
2023/05/19 10:29:27;;;;;;;2.75;1.00;;;;;;;22.88;31.50;101929.66;5068951;28;20060;-74
2023/05/19 10:31:59;;;;;;;1.75;1.10;;;;;;;22.74;31.46;101932.75;5087209;28;20051;-73
2023/05/19 10:34:49;;;;;;;3.20;0.98;;;;;;;22.60;31.71;101933.13;5088785;28;20043;-73
2023/05/19 10:37:30;;;;;;;3.15;1.10;;;;;;;22.38;31.84;101947.56;5085057;28;20044;-73
2023/05/19 10:39:57;;;;;;;1.88;1.20;;;;;;;22.09;31.98;101942.06;5090065;28;20048;-72
2023/05/19 10:42:42;;;;;;;3.10;1.20;;;;;;;21.97;32.32;101931.44;5087004;28;20127;-73
2023/05/19 10:45:21;;;;;;;3.97;1.42;;;;;;;22.20;32.60;101925.94;5070834;28;20051;-73
2023/05/19 10:47:50;;;;;;;3.88;1.13;;;;;;;22.44;32.51;101931.81;5088610;28;20090;-73
2023/05/19 10:50:17;;;;;;;3.25;1.10;;;;;;;22.84;32.35;101925.56;5072114;28;20112;-73
2023/05/19 10:52:52;;;;;;;4.07;1.30;;;;;;;23.19;31.91;101925.06;5087617;28;20052;-73
2023/05/19 10:55:46;;;;;;;1.33;0.90;;;;;;;23.37;32.00;101927.00;5087885;28;20386;-73
2023/05/19 10:58:13;;;;;;;7.32;1.00;;;;;;;23.42;31.06;101914.03;5062441;28;20486;-73
2023/05/19 11:00:40;;;;;;;1.67;0.90;;;;;;;23.29;31.62;101918.84;5090143;28;20056;-73
2023/05/19 11:03:58;;;;;;;6.20;1.52;;;;;;;23.25;31.33;101915.59;5084102;28;20048;-74
2023/05/19 11:06:26;;;;;;;3.08;1.30;;;;;;;23.32;30.71;101907.78;5085915;28;20062;-74
2023/05/19 11:08:59;;;;;;;2.72;1.40;;;;;;;23.34;31.00;101909.34;5089725;28;20453;-73
2023/05/19 11:11:47;;;;;;;3.38;1.40;;;;;;;23.34;30.60;101908.50;5086042;28;20139;-73
2023/05/19 11:14:19;;;;;;;2.78;1.13;;;;;;;23.43;30.70;101905.81;5088831;28;20133;-73
2023/05/19 11:16:48;;;;;;;3.75;1.15;;;;;;;23.44;30.41;101912.88;5086692;28;20616;-74
2023/05/19 11:23:37;;;;;;;3.47;1.13;;;;;;;23.41;31.00;101909.63;5084126;28;20064;-75
2023/05/19 11:26:06;;;;;;;2.85;1.10;;;;;;;23.67;30.94;101909.91;5069517;28;20679;-74
2023/05/19 11:28:35;;;;;;;3.55;1.00;;;;;;;23.85;30.48;101910.00;5088677;28;20106;-74
2023/05/19 11:31:06;;;;;;;3.65;1.00;;;;;;;24.18;30.30;101895.16;5087162;28;20044;-74
2023/05/19 11:33:34;;;;;;;2.17;1.15;;;;;;;24.29;29.74;101899.50;5088598;28;20106;-74
2023/05/19 11:36:01;;;;;;;7.63;1.25;;;;;;;24.14;30.09;101891.94;5087938;28;20135;-74
2023/05/19 11:38:29;;;;;;;4.32;1.10;;;;;;;23.90;29.65;101896.97;5071464;28;20540;-72
2023/05/19 11:40:56;;;;;;;2.40;1.50;;;;;;;23.69;30.08;101892.66;5086929;28;20086;-74
2023/05/19 11:43:24;;;;;;;8.43;1.30;;;;;;;23.48;30.21;101908.06;5081030;28;20041;-72
2023/05/19 11:45:53;;;;;;;3.05;1.27;;;;;;;23.18;30.88;101896.47;5071365;28;20403;-73